In Rescue
 
Open Full Screen Window  High Contrast Mode
Wind Gusting 00 knots
15
January 20, 2021 3:49 PM CST
Weather Information
Wind Direction
  310 °
Wind Speed
  15 kt (17 mph)
Wind Gust
  00 kt (0 mph)
Altimeter
29.60 in
Visibility
10 SM
Temperature
04° C
39° F
Dewpoint
-02° C
28° F
Humidity
65%
1hr Rain Fall
00.00 in.
24hr Rain Fall
00.00 in.
Sky Condition
Clear
VFR

METAR KBBB 202149Z AUTO 31015KT 10SM CLR 04/M02 A2960 RMK AO2

FAA Disclaimer: The data displayed is for advisory purposes only and is not to be used for flight planning or operations.